Time;durP1;ratioP1;P1;durP2;ratioP2;P2;SDS_P1;SDS_P2;PMS_P1;PMS_P2;Temp;Humidity;BMP_temperature;BMP_pressure;BME280_temperature;BME280_humidity;BME280_pressure;Samples;Min_cycle;Max_cycle;Signal;HPM_P1;HPM_P2
2022/04/06 00:01:45;;;;;;;6.20;4.32;;;10.20;99.90;;;;;;5031746;28;20025;-78
2022/04/06 00:04:11;;;;;;;4.25;3.85;;;10.20;99.90;;;;;;5020496;28;20408;-78
2022/04/06 00:06:36;;;;;;;4.88;4.32;;;10.20;99.90;;;;;;5033217;28;20105;-77
2022/04/06 00:09:03;;;;;;;4.47;4.07;;;10.20;99.90;;;;;;5032361;28;20055;-75
2022/04/06 00:11:29;;;;;;;5.97;4.55;;;10.20;99.90;;;;;;5019159;28;20071;-77
2022/04/06 00:13:54;;;;;;;5.95;4.85;;;10.20;99.90;;;;;;5023240;28;20021;-77
2022/04/06 00:16:20;;;;;;;5.43;4.93;;;10.20;99.90;;;;;;5031113;28;20025;-76
2022/04/06 00:18:45;;;;;;;6.93;4.25;;;10.20;99.90;;;;;;5033137;28;20087;-76
2022/04/06 00:21:12;;;;;;;4.95;4.45;;;10.20;99.90;;;;;;5024949;28;20039;-75
2022/04/06 00:23:38;;;;;;;5.95;4.25;;;10.20;99.90;;;;;;5021656;28;20060;-77
2022/04/06 00:26:03;;;;;;;5.03;4.53;;;10.20;99.90;;;;;;5033524;28;20048;-76
2022/04/06 00:28:30;;;;;;;5.63;4.85;;;10.10;99.90;;;;;;5035248;28;20082;-75
2022/04/06 00:30:56;;;;;;;4.70;4.25;;;10.30;99.90;;;;;;5024110;28;20052;-73
2022/04/06 00:33:21;;;;;;;5.07;4.22;;;10.10;99.90;;;;;;5030317;28;20053;-73
2022/04/06 00:35:47;;;;;;;4.63;4.05;;;10.10;99.90;;;;;;5035923;28;20461;-77
2022/04/06 00:38:13;;;;;;;5.60;5.10;;;10.10;99.90;;;;;;5030395;28;20040;-74
2022/04/06 00:40:39;;;;;;;4.65;4.22;;;10.20;99.90;;;;;;5023277;28;20025;-73
2022/04/06 00:43:07;;;;;;;4.18;3.78;;;10.20;99.90;;;;;;5040431;28;20395;-74
2022/04/06 00:45:33;;;;;;;5.10;4.20;;;10.20;99.90;;;;;;5022855;28;20048;-76
2022/04/06 00:47:58;;;;;;;4.32;3.92;;;10.20;99.90;;;;;;5042820;28;20467;-76
2022/04/06 00:50:24;;;;;;;4.82;4.10;;;10.20;99.90;;;;;;5029856;28;20036;-77
2022/04/06 00:52:56;;;;;;;4.53;4.10;;;10.20;99.90;;;;;;5023418;28;20450;-75
2022/04/06 00:55:25;;;;;;;4.22;3.83;;;10.30;99.90;;;;;;5031976;28;20037;-76
2022/04/06 00:57:51;;;;;;;4.55;4.00;;;10.30;99.90;;;;;;5018715;28;20125;-75
2022/04/06 01:00:17;;;;;;;4.15;3.75;;;10.30;99.90;;;;;;5032857;28;20152;-74
2022/04/06 01:02:43;;;;;;;3.97;3.67;;;10.30;99.90;;;;;;5028579;28;20026;-74
2022/04/06 01:05:09;;;;;;;4.80;4.30;;;10.20;99.90;;;;;;5033849;28;20035;-74
2022/04/06 01:07:35;;;;;;;4.25;3.95;;;10.30;99.90;;;;;;5030872;28;20456;-73
2022/04/06 01:10:01;;;;;;;4.07;3.65;;;10.30;99.90;;;;;;5031987;28;20029;-72
2022/04/06 01:12:28;;;;;;;4.43;4.03;;;10.30;99.90;;;;;;5024738;28;20025;-75
2022/04/06 01:14:54;;;;;;;3.78;3.45;;;10.40;99.90;;;;;;5021807;28;20065;-75
2022/04/06 01:17:20;;;;;;;3.95;3.65;;;10.30;99.90;;;;;;5025438;28;20083;-74
2022/04/06 01:19:51;;;;;;;4.32;3.88;;;10.30;99.90;;;;;;5053171;28;20025;-73
2022/04/06 01:22:18;;;;;;;4.20;3.80;;;10.30;99.90;;;;;;5052930;28;20044;-74
2022/04/06 01:24:46;;;;;;;3.80;3.50;;;10.40;99.90;;;;;;5054959;28;20034;-73
2022/04/06 01:27:12;;;;;;;5.63;3.65;;;10.40;99.90;;;;;;5060368;28;20045;-74
2022/04/06 01:29:40;;;;;;;4.25;3.85;;;10.40;99.90;;;;;;5034657;28;20021;-75
2022/04/06 01:32:08;;;;;;;4.03;3.63;;;10.30;99.90;;;;;;5030940;28;20044;-76
2022/04/06 01:34:34;;;;;;;7.85;4.20;;;10.40;99.90;;;;;;5030298;28;20052;-72
2022/04/06 01:37:00;;;;;;;4.35;3.95;;;10.40;99.90;;;;;;4987962;28;20507;-72
2022/04/06 01:39:25;;;;;;;5.20;3.63;;;10.30;99.90;;;;;;4993453;28;20022;-74
2022/04/06 01:41:51;;;;;;;4.78;4.10;;;10.40;99.90;;;;;;5024239;28;20053;-78
2022/04/06 01:44:16;;;;;;;5.72;4.13;;;10.30;99.90;;;;;;5015616;28;20030;-80
2022/04/06 01:46:42;;;;;;;4.32;3.92;;;10.30;99.90;;;;;;5014309;28;20021;-80
2022/04/06 01:54:36;;;;;;;4.15;3.85;;;10.40;99.90;;;;;;5039030;28;20097;-82
2022/04/06 01:57:01;;;;;;;3.97;3.67;;;10.40;99.90;;;;;;5021069;28;20041;-81
2022/04/06 01:59:27;;;;;;;4.82;3.63;;;10.30;99.90;;;;;;5008219;28;20026;-81
2022/04/06 02:01:54;;;;;;;4.55;4.15;;;10.40;99.90;;;;;;5024742;28;20108;-81
2022/04/06 02:04:20;;;;;;;4.60;4.20;;;10.40;99.90;;;;;;5031864;28;20017;-82
2022/04/06 02:06:46;;;;;;;4.35;3.83;;;10.50;99.90;;;;;;5019750;28;20120;-82
2022/04/06 02:09:11;;;;;;;4.43;3.90;;;10.40;99.90;;;;;;5009202;28;20112;-80
2022/04/06 02:11:38;;;;;;;4.93;4.45;;;10.40;99.90;;;;;;5034077;28;20026;-81
2022/04/06 02:14:05;;;;;;;4.05;3.75;;;10.40;99.90;;;;;;5033887;28;20806;-82
2022/04/06 02:16:32;;;;;;;3.75;3.45;;;10.40;99.90;;;;;;5016786;28;20013;-81
2022/04/06 02:18:57;;;;;;;4.63;3.95;;;10.40;99.90;;;;;;5019659;28;20468;-82
2022/04/06 02:21:23;;;;;;;4.25;3.85;;;10.40;99.90;;;;;;5017471;28;20044;-81
2022/04/06 02:23:49;;;;;;;5.72;3.63;;;10.30;99.90;;;;;;5022128;28;20037;-82
2022/04/06 02:26:14;;;;;;;4.43;4.03;;;10.30;99.90;;;;;;5022326;28;20083;-80
2022/04/06 02:28:40;;;;;;;5.82;3.65;;;10.30;99.90;;;;;;5030968;28;20018;-82
2022/04/06 02:31:05;;;;;;;4.35;3.95;;;10.30;99.90;;;;;;5044614;28;20028;-80
2022/04/06 02:33:31;;;;;;;3.80;3.50;;;10.30;99.90;;;;;;5030305;28;20405;-81
2022/04/06 02:35:56;;;;;;;3.53;3.22;;;10.30;99.90;;;;;;5020096;28;20037;-83
2022/04/06 02:38:22;;;;;;;6.43;4.35;;;10.30;99.90;;;;;;5021339;28;20026;-81
2022/04/06 02:40:48;;;;;;;4.28;3.88;;;10.40;99.90;;;;;;5017967;28;20527;-81
2022/04/06 02:43:13;;;;;;;5.68;3.60;;;10.40;99.90;;;;;;5018575;28;20083;-81
2022/04/06 02:45:39;;;;;;;4.05;3.65;;;10.40;99.90;;;;;;5020705;28;20052;-82
2022/04/06 02:48:05;;;;;;;4.45;3.33;;;10.40;99.90;;;;;;5018369;28;20406;-82
2022/04/06 02:50:32;;;;;;;4.07;3.67;;;10.40;99.90;;;;;;5012019;28;20025;-78
2022/04/06 02:52:58;;;;;;;4.35;3.75;;;10.40;99.90;;;;;;5009789;28;20100;-75
2022/04/06 02:55:23;;;;;;;3.22;3.00;;;10.30;99.90;;;;;;5021637;28;20113;-75
2022/04/06 02:57:49;;;;;;;4.63;3.45;;;10.30;99.90;;;;;;5033898;28;20462;-77
2022/04/06 03:00:16;;;;;;;3.58;3.28;;;10.30;99.90;;;;;;5032224;28;20399;-74
2022/04/06 03:02:42;;;;;;;5.63;3.60;;;10.30;99.90;;;;;;5011333;28;20029;-74
2022/04/06 03:05:08;;;;;;;5.15;4.20;;;10.30;99.90;;;;;;5026413;28;20017;-75
2022/04/06 03:07:34;;;;;;;4.32;3.42;;;10.40;99.90;;;;;;5028786;28;20053;-75
2022/04/06 03:10:01;;;;;;;3.60;3.30;;;10.30;99.90;;;;;;5033695;28;20038;-75
2022/04/06 03:12:26;;;;;;;5.05;3.55;;;10.30;99.90;;;;;;5029059;28;20030;-74
2022/04/06 03:14:52;;;;;;;3.53;3.22;;;10.30;99.90;;;;;;5030524;28;20030;-76
2022/04/06 03:17:18;;;;;;;7.05;3.22;;;10.30;99.90;;;;;;5028309;28;20221;-75
2022/04/06 03:19:44;;;;;;;4.85;3.00;;;10.20;99.90;;;;;;5023389;28;20491;-75
2022/04/06 03:22:16;;;;;;;5.72;3.10;;;10.30;99.90;;;;;;5017673;28;20026;-73
2022/04/06 03:24:41;;;;;;;3.67;3.38;;;10.30;99.90;;;;;;5027521;28;20029;-73
2022/04/06 03:27:07;;;;;;;3.67;3.35;;;10.30;99.90;;;;;;5024137;28;20034;-73
2022/04/06 03:29:32;;;;;;;2.90;2.70;;;10.30;99.90;;;;;;5030447;28;20021;-75
2022/04/06 03:31:58;;;;;;;3.30;3.00;;;10.20;99.90;;;;;;5023740;28;20030;-75
2022/04/06 03:34:23;;;;;;;4.03;3.67;;;10.20;99.90;;;;;;5030518;28;20017;-74
2022/04/06 03:36:49;;;;;;;3.47;3.15;;;10.20;99.90;;;;;;5017179;28;20104;-74
2022/04/06 03:39:14;;;;;;;4.40;2.97;;;10.20;99.90;;;;;;5027361;28;20071;-75
2022/04/06 03:41:40;;;;;;;3.30;3.00;;;10.10;99.90;;;;;;5028672;28;20030;-74
2022/04/06 03:44:06;;;;;;;3.58;3.22;;;10.10;99.90;;;;;;5027794;28;20076;-76
2022/04/06 03:46:31;;;;;;;3.58;3.22;;;10.00;99.90;;;;;;5031129;28;20021;-75
2022/04/06 03:48:57;;;;;;;3.55;3.25;;;10.00;99.90;;;;;;5034605;28;20107;-76
2022/04/06 03:51:22;;;;;;;3.85;3.28;;;10.00;99.90;;;;;;5030341;28;20531;-76
2022/04/06 03:53:48;;;;;;;4.05;3.65;;;10.00;99.90;;;;;;5023780;28;20585;-75
2022/04/06 03:56:13;;;;;;;3.75;3.35;;;9.90;99.90;;;;;;5030026;28;20032;-73
2022/04/06 03:58:39;;;;;;;4.95;3.47;;;10.00;99.90;;;;;;5029078;28;20029;-74
2022/04/06 04:01:06;;;;;;;4.45;4.00;;;10.00;99.90;;;;;;5031040;28;20018;-76
2022/04/06 04:03:32;;;;;;;5.13;4.53;;;10.00;99.90;;;;;;5005361;28;20030;-75
2022/04/06 04:05:57;;;;;;;4.82;4.40;;;10.00;99.90;;;;;;5030530;28;20024;-75
2022/04/06 04:08:23;;;;;;;4.53;4.10;;;10.00;99.90;;;;;;5031582;28;20021;-76
2022/04/06 04:10:49;;;;;;;4.65;3.55;;;10.00;99.90;;;;;;5023657;28;20025;-74
2022/04/06 04:13:14;;;;;;;5.50;4.82;;;10.00;99.90;;;;;;5017755;28;20030;-73
2022/04/06 04:15:40;;;;;;;6.00;4.63;;;10.00;99.90;;;;;;5013899;28;20017;-75
2022/04/06 04:18:05;;;;;;;6.10;5.05;;;10.00;99.90;;;;;;5019911;28;20030;-74
2022/04/06 04:20:31;;;;;;;4.85;4.38;;;10.00;99.90;;;;;;5027067;28;20037;-75
2022/04/06 04:22:56;;;;;;;4.72;4.32;;;10.10;99.90;;;;;;5022003;28;20033;-74
2022/04/06 04:25:22;;;;;;;6.13;4.47;;;10.10;99.90;;;;;;5005750;28;20476;-74
2022/04/06 04:27:48;;;;;;;7.28;4.15;;;10.10;99.90;;;;;;5025012;28;20092;-75
2022/04/06 04:30:13;;;;;;;4.97;3.72;;;10.00;99.90;;;;;;5029375;28;20051;-74
2022/04/06 04:32:39;;;;;;;4.00;3.70;;;10.00;99.90;;;;;;5025726;28;20572;-74
2022/04/06 04:35:06;;;;;;;3.90;3.50;;;10.00;99.90;;;;;;5030569;28;20151;-76
2022/04/06 04:37:32;;;;;;;4.15;3.08;;;10.00;99.90;;;;;;5028568;28;20022;-76
2022/04/06 04:39:58;;;;;;;3.95;3.53;;;10.10;99.90;;;;;;5028128;28;20026;-75
2022/04/06 04:42:23;;;;;;;6.70;4.00;;;10.10;99.90;;;;;;5021867;28;20116;-75
2022/04/06 04:44:49;;;;;;;7.15;4.03;;;10.10;99.90;;;;;;5026624;28;20406;-77
2022/04/06 04:47:16;;;;;;;4.50;3.83;;;10.10;99.90;;;;;;5015607;28;20041;-75
2022/04/06 04:49:42;;;;;;;3.47;3.17;;;10.10;99.90;;;;;;5006957;28;20391;-75
2022/04/06 04:52:08;;;;;;;4.80;4.13;;;10.10;99.90;;;;;;5023574;28;20096;-74
2022/04/06 04:54:34;;;;;;;4.93;3.58;;;10.10;99.90;;;;;;5020087;28;20080;-75
2022/04/06 04:56:59;;;;;;;3.80;3.40;;;10.10;99.90;;;;;;5021562;28;20029;-74
2022/04/06 04:59:25;;;;;;;3.45;3.15;;;10.10;99.90;;;;;;5032349;28;20136;-75
2022/04/06 05:01:51;;;;;;;4.68;3.38;;;10.10;99.90;;;;;;5027581;28;20036;-73
2022/04/06 05:04:16;;;;;;;4.80;3.92;;;10.10;99.90;;;;;;5021932;28;20486;-76
2022/04/06 05:06:42;;;;;;;4.53;3.50;;;10.10;99.90;;;;;;5020445;28;20076;-76
2022/04/06 05:09:07;;;;;;;7.43;4.68;;;10.10;99.90;;;;;;5025348;28;20025;-76
2022/04/06 05:11:33;;;;;;;4.90;3.53;;;10.20;99.90;;;;;;5028505;28;20034;-76
2022/04/06 05:13:59;;;;;;;3.58;3.28;;;10.20;99.90;;;;;;5024671;28;20018;-74
2022/04/06 05:16:24;;;;;;;3.65;3.33;;;10.20;99.90;;;;;;5036960;28;20092;-75
2022/04/06 05:18:50;;;;;;;6.32;4.57;;;10.20;99.90;;;;;;5031746;28;20030;-74
2022/04/06 05:21:15;;;;;;;8.43;5.32;;;10.20;99.90;;;;;;5036017;28;20024;-74
2022/04/06 05:23:41;;;;;;;5.63;5.07;;;10.20;99.90;;;;;;5005110;28;20075;-74
2022/04/06 05:26:06;;;;;;;3.58;3.28;;;10.20;99.90;;;;;;5027205;28;20030;-77
2022/04/06 05:28:32;;;;;;;3.92;2.90;;;10.30;99.90;;;;;;5031033;28;20074;-76
2022/04/06 05:30:57;;;;;;;3.90;3.50;;;10.20;99.90;;;;;;5025170;28;20117;-73
2022/04/06 05:33:23;;;;;;;6.40;3.58;;;10.20;99.90;;;;;;5033621;28;20108;-75
2022/04/06 05:35:48;;;;;;;4.60;3.83;;;10.30;99.90;;;;;;5025360;28;20026;-74
2022/04/06 05:38:14;;;;;;;6.93;4.32;;;10.20;99.90;;;;;;5029367;28;20021;-74
2022/04/06 05:40:40;;;;;;;5.00;4.25;;;10.20;99.90;;;;;;5023782;28;20037;-74
2022/04/06 05:43:05;;;;;;;5.43;4.00;;;10.20;99.90;;;;;;5031611;28;20363;-76
2022/04/06 05:45:31;;;;;;;5.22;4.72;;;10.30;99.90;;;;;;5018412;28;20037;-75
2022/04/06 05:47:57;;;;;;;6.70;4.63;;;10.20;99.90;;;;;;5025609;28;20252;-75
2022/04/06 05:50:22;;;;;;;5.95;4.63;;;10.30;99.90;;;;;;5025489;28;20073;-74
2022/04/06 05:52:50;;;;;;;5.75;4.05;;;10.30;99.90;;;;;;5030122;28;20542;-74
2022/04/06 05:55:16;;;;;;;6.07;4.22;;;10.30;99.90;;;;;;5044005;28;20061;-74
2022/04/06 05:57:42;;;;;;;4.80;4.03;;;10.30;99.90;;;;;;5019513;28;20530;-75
2022/04/06 06:00:09;;;;;;;4.97;4.22;;;10.30;99.90;;;;;;5027787;28;20053;-74
2022/04/06 06:02:37;;;;;;;6.78;4.38;;;10.40;99.90;;;;;;5033889;28;20064;-74
2022/04/06 06:05:04;;;;;;;6.55;4.72;;;10.50;99.90;;;;;;5025336;28;20029;-74
2022/04/06 06:07:29;;;;;;;8.43;4.90;;;10.50;99.90;;;;;;5036531;28;20522;-75
2022/04/06 06:09:55;;;;;;;11.10;4.80;;;10.60;99.90;;;;;;5034238;28;20064;-73
2022/04/06 06:12:20;;;;;;;10.18;5.18;;;10.60;99.90;;;;;;5010775;28;20060;-74
2022/04/06 06:14:46;;;;;;;10.45;4.85;;;10.70;99.90;;;;;;5021102;28;20041;-74
2022/04/06 06:17:11;;;;;;;5.10;4.60;;;10.70;99.90;;;;;;5011069;28;20100;-74
2022/04/06 06:19:37;;;;;;;6.47;4.05;;;10.80;99.90;;;;;;5030323;28;20080;-75
2022/04/06 06:22:03;;;;;;;7.55;4.70;;;10.80;99.90;;;;;;5037141;28;20464;-75
2022/04/06 06:24:28;;;;;;;6.07;4.80;;;10.80;99.90;;;;;;5022266;28;20054;-75
2022/04/06 06:26:54;;;;;;;6.30;4.90;;;10.90;99.90;;;;;;5033720;28;20030;-74
2022/04/06 06:29:20;;;;;;;7.10;4.75;;;10.90;99.90;;;;;;5027776;28;20021;-75
2022/04/06 06:31:46;;;;;;;5.38;4.88;;;11.00;99.90;;;;;;5006976;28;20548;-75
2022/04/06 06:34:12;;;;;;;5.57;4.78;;;11.00;99.90;;;;;;5031227;28;20064;-76
2022/04/06 06:36:38;;;;;;;6.60;4.93;;;11.10;99.90;;;;;;5013334;28;20064;-74
2022/04/06 06:39:03;;;;;;;5.40;4.43;;;11.10;99.90;;;;;;5014275;28;20053;-74
2022/04/06 06:41:29;;;;;;;4.85;4.40;;;11.10;99.90;;;;;;5029520;28;20468;-74
2022/04/06 06:43:56;;;;;;;5.07;4.57;;;11.20;99.90;;;;;;5022556;28;20082;-75
2022/04/06 06:46:22;;;;;;;5.05;4.55;;;11.20;99.90;;;;;;5014454;28;20040;-74
2022/04/06 06:48:49;;;;;;;4.75;4.15;;;11.20;99.90;;;;;;5031042;28;20072;-76
2022/04/06 06:51:16;;;;;;;5.25;4.30;;;11.40;99.90;;;;;;5030818;28;20032;-75
2022/04/06 06:53:42;;;;;;;6.32;4.65;;;11.40;99.90;;;;;;5043496;28;20041;-71
2022/04/06 06:56:08;;;;;;;5.88;4.38;;;11.50;99.90;;;;;;5057053;28;20018;-71
2022/04/06 06:58:35;;;;;;;5.93;4.20;;;11.50;99.90;;;;;;5037092;28;20042;-74
2022/04/06 07:01:00;;;;;;;4.60;4.20;;;11.50;99.90;;;;;;5040090;28;20033;-74
2022/04/06 07:03:27;;;;;;;4.03;3.60;;;11.60;99.90;;;;;;5045060;28;20069;-74
2022/04/06 07:05:53;;;;;;;5.60;4.25;;;11.60;99.90;;;;;;5054587;28;20034;-72
2022/04/06 07:08:18;;;;;;;4.55;4.05;;;11.50;99.90;;;;;;5049467;28;20032;-75
2022/04/06 07:10:45;;;;;;;5.43;3.58;;;11.50;99.90;;;;;;5040215;28;20036;-75
2022/04/06 07:13:16;;;;;;;4.03;3.63;;;11.70;99.90;;;;;;5014359;28;20071;-74
2022/04/06 07:15:44;;;;;;;3.97;3.58;;;11.70;99.90;;;;;;5028590;28;20025;-73
2022/04/06 07:18:12;;;;;;;3.90;3.50;;;11.70;99.90;;;;;;5018663;28;20055;-74
2022/04/06 07:20:39;;;;;;;5.10;3.85;;;11.80;99.90;;;;;;5014490;28;20017;-73
2022/04/06 07:23:06;;;;;;;4.97;3.72;;;11.90;99.90;;;;;;5025063;28;20067;-75
2022/04/06 07:25:34;;;;;;;4.10;3.22;;;12.00;99.90;;;;;;5011943;28;20473;-74
2022/04/06 07:28:00;;;;;;;5.50;3.33;;;12.10;99.90;;;;;;5031913;28;20037;-74
2022/04/06 07:30:25;;;;;;;3.55;2.88;;;12.20;99.90;;;;;;5026429;28;20105;-73
2022/04/06 07:32:51;;;;;;;4.15;3.22;;;12.40;99.90;;;;;;5038268;28;20438;-75
2022/04/06 07:35:17;;;;;;;3.00;2.70;;;12.50;99.90;;;;;;5023429;28;20037;-75
2022/04/06 07:37:45;;;;;;;3.10;2.90;;;12.50;99.90;;;;;;5028891;28;20096;-75
2022/04/06 07:40:13;;;;;;;6.25;2.95;;;12.50;99.90;;;;;;5031807;28;20423;-73
2022/04/06 07:42:39;;;;;;;2.67;2.22;;;12.60;99.90;;;;;;5020365;28;20176;-73
2022/04/06 07:45:09;;;;;;;2.50;2.20;;;12.80;99.90;;;;;;5030025;28;20029;-76
2022/04/06 07:47:37;;;;;;;3.17;2.20;;;12.80;99.90;;;;;;5028839;28;20049;-74
2022/04/06 07:50:03;;;;;;;1.98;1.88;;;12.70;99.90;;;;;;5019583;28;20026;-73
2022/04/06 07:52:30;;;;;;;3.45;1.90;;;12.80;99.90;;;;;;5003758;28;20386;-74
2022/04/06 07:54:57;;;;;;;2.80;2.50;;;12.60;99.90;;;;;;5021388;28;20076;-74
2022/04/06 07:57:26;;;;;;;2.10;1.90;;;12.90;99.90;;;;;;5029874;28;20037;-73
2022/04/06 07:59:52;;;;;;;1.88;1.70;;;13.00;99.90;;;;;;5016819;28;20036;-74
2022/04/06 08:02:17;;;;;;;2.72;1.83;;;13.00;99.90;;;;;;5030836;28;20052;-75
2022/04/06 08:04:43;;;;;;;1.80;1.58;;;12.90;99.90;;;;;;5025097;28;20108;-74
2022/04/06 08:07:09;;;;;;;1.70;1.50;;;13.00;99.90;;;;;;5014065;28;20036;-74
2022/04/06 08:09:34;;;;;;;3.88;1.85;;;13.00;99.90;;;;;;5016313;28;20037;-74
2022/04/06 08:12:01;;;;;;;1.80;1.50;;;13.00;99.90;;;;;;5032058;28;20026;-73
2022/04/06 08:14:27;;;;;;;1.50;1.33;;;13.10;99.90;;;;;;5018372;28;20053;-74
2022/04/06 08:16:55;;;;;;;1.95;1.20;;;13.40;99.90;;;;;;5030460;28;20444;-74
2022/04/06 08:19:22;;;;;;;2.85;1.13;;;13.30;99.90;;;;;;5032177;28;20052;-74
2022/04/06 08:21:48;;;;;;;1.98;1.02;;;13.30;99.90;;;;;;5026520;28;20017;-72
2022/04/06 08:24:14;;;;;;;1.67;1.13;;;13.50;99.90;;;;;;5019456;28;20438;-77
2022/04/06 08:26:39;;;;;;;1.60;1.25;;;13.50;99.90;;;;;;5027375;28;20030;-74
2022/04/06 08:29:05;;;;;;;2.40;1.48;;;13.70;99.90;;;;;;5009774;28;20026;-74
2022/04/06 08:31:31;;;;;;;2.17;0.77;;;13.70;99.90;;;;;;5014576;28;20049;-74
2022/04/06 08:33:56;;;;;;;2.38;1.30;;;13.60;99.90;;;;;;5029701;28;20507;-73
2022/04/06 08:36:22;;;;;;;1.00;0.88;;;13.70;99.90;;;;;;5033866;28;22110;-77
2022/04/06 08:38:48;;;;;;;1.35;0.70;;;13.80;99.90;;;;;;5026760;28;20026;-74
2022/04/06 08:41:13;;;;;;;1.58;0.90;;;14.00;99.90;;;;;;5032825;28;20025;-75
2022/04/06 08:43:39;;;;;;;0.60;0.60;;;14.40;99.90;;;;;;5029994;28;20025;-74
2022/04/06 08:46:05;;;;;;;0.90;0.60;;;14.30;99.90;;;;;;5029513;28;20480;-74
2022/04/06 08:48:32;;;;;;;0.65;0.55;;;14.50;99.90;;;;;;5028509;28;20036;-74
2022/04/06 08:51:00;;;;;;;0.95;0.60;;;14.90;99.90;;;;;;5028368;28;20033;-74
2022/04/06 08:53:26;;;;;;;0.40;0.40;;;14.70;99.90;;;;;;5025333;28;20033;-75
2022/04/06 08:55:52;;;;;;;0.40;0.40;;;14.40;99.90;;;;;;5029429;28;20017;-74
2022/04/06 08:58:18;;;;;;;2.08;0.60;;;14.40;99.90;;;;;;5007631;28;20438;-74
2022/04/06 09:00:43;;;;;;;0.47;0.40;;;14.70;99.90;;;;;;5033146;28;20037;-75
2022/04/06 09:03:10;;;;;;;0.73;0.55;;;14.50;99.90;;;;;;5027765;28;20480;-74
2022/04/06 09:05:36;;;;;;;1.15;0.47;;;14.50;99.90;;;;;;5018380;28;20022;-75
2022/04/06 09:08:03;;;;;;;0.60;0.60;;;14.80;99.90;;;;;;5029802;28;20084;-74
2022/04/06 09:10:37;;;;;;;0.50;0.50;;;14.60;99.90;;;;;;5031743;28;20029;-75
2022/04/06 09:13:18;;;;;;;0.65;0.40;;;14.70;99.90;;;;;;5016137;28;20026;-74
2022/04/06 09:15:44;;;;;;;0.30;0.30;;;14.70;99.90;;;;;;5026664;28;20017;-75
2022/04/06 09:18:10;;;;;;;1.05;0.40;;;14.70;99.90;;;;;;5033884;28;20033;-73
2022/04/06 09:20:36;;;;;;;0.85;0.60;;;14.50;99.90;;;;;;5028194;28;20412;-75
2022/04/06 09:23:05;;;;;;;0.70;0.50;;;14.60;99.90;;;;;;5030890;28;20103;-75
2022/04/06 09:25:39;;;;;;;0.55;0.55;;;14.60;99.90;;;;;;5018586;28;20029;-75
2022/04/06 09:28:14;;;;;;;0.43;0.32;;;14.70;99.90;;;;;;5027122;28;20029;-74
2022/04/06 09:30:45;;;;;;;0.50;0.50;;;14.70;99.90;;;;;;5028161;28;20033;-74
2022/04/06 09:33:15;;;;;;;0.57;0.50;;;14.70;99.90;;;;;;5034958;28;20393;-74
2022/04/06 09:35:43;;;;;;;0.80;0.70;;;15.00;99.90;;;;;;5028288;28;20076;-73
2022/04/06 09:38:14;;;;;;;0.63;0.50;;;15.40;99.90;;;;;;5035085;28;20654;-74
2022/04/06 09:40:40;;;;;;;0.52;0.50;;;15.70;99.90;;;;;;5038092;28;20512;-73
2022/04/06 09:43:07;;;;;;;0.75;0.50;;;15.60;99.90;;;;;;5027519;28;20030;-74
2022/04/06 09:48:17;;;;;;;0.32;0.32;;;15.90;99.90;;;;;;5039821;28;20226;-73
2022/04/06 09:50:54;;;;;;;0.73;0.40;;;15.70;99.90;;;;;;5024984;28;20071;-75
2022/04/06 09:53:25;;;;;;;0.30;0.30;;;15.80;99.90;;;;;;5014079;28;20472;-75
2022/04/06 09:55:52;;;;;;;;;;;15.70;99.90;;;;;;5022182;28;20100;-73
2022/04/06 09:58:20;;;;;;;0.98;0.50;;;16.00;99.90;;;;;;5028019;28;20386;-75
2022/04/06 10:00:45;;;;;;;0.75;0.38;;;16.20;99.90;;;;;;5031366;28;20025;-73
2022/04/06 10:03:15;;;;;;;1.52;0.45;;;16.20;99.90;;;;;;5037083;28;20057;-75
2022/04/06 10:05:44;;;;;;;1.08;1.02;;;16.50;99.90;;;;;;5030533;28;20040;-74
2022/04/06 10:08:11;;;;;;;0.38;0.38;;;16.30;99.90;;;;;;5017784;28;20033;-77
2022/04/06 10:10:38;;;;;;;0.28;0.28;;;16.20;99.90;;;;;;5029631;28;20205;-74
2022/04/06 10:13:05;;;;;;;2.35;0.32;;;16.30;99.40;;;;;;5035924;28;20029;-76
2022/04/06 10:15:32;;;;;;;2.70;1.23;;;16.40;99.80;;;;;;5015362;28;20022;-74
2022/04/06 10:17:58;;;;;;;1.10;0.40;;;16.50;99.60;;;;;;5027130;28;20034;-74
2022/04/06 10:20:27;;;;;;;1.92;0.30;;;16.80;99.00;;;;;;5039271;28;20646;-75
2022/04/06 10:23:00;;;;;;;0.22;0.20;;;16.80;98.70;;;;;;5027677;28;20487;-75
2022/04/06 10:25:36;;;;;;;0.20;0.20;;;16.50;98.90;;;;;;5023230;28;20025;-74
2022/04/06 10:28:09;;;;;;;0.47;0.20;;;16.50;98.70;;;;;;5031731;28;20095;-75
2022/04/06 10:30:34;;;;;;;0.77;0.40;;;16.00;99.00;;;;;;5028545;28;20065;-75
2022/04/06 10:33:00;;;;;;;0.52;0.52;;;15.80;99.30;;;;;;5011310;28;20043;-74
2022/04/06 10:35:36;;;;;;;0.20;0.20;;;16.00;99.50;;;;;;5026870;28;20325;-76
2022/04/06 10:38:04;;;;;;;0.45;0.30;;;16.10;99.20;;;;;;5029866;28;20532;-75
2022/04/06 10:41:05;;;;;;;0.20;0.20;;;16.30;98.70;;;;;;5030250;28;20550;-75
2022/04/06 10:43:38;;;;;;;0.43;0.22;;;16.60;97.90;;;;;;5007985;28;20459;-75
2022/04/06 10:46:08;;;;;;;0.40;0.20;;;16.50;98.20;;;;;;5022836;28;20077;-76
2022/04/06 10:48:35;;;;;;;1.10;0.28;;;16.30;98.20;;;;;;5015491;28;20463;-75
2022/04/06 10:51:28;;;;;;;0.20;0.20;;;16.60;97.60;;;;;;5032471;28;20025;-75
2022/04/06 10:53:54;;;;;;;0.20;0.20;;;16.80;96.90;;;;;;5010045;28;20084;-75
2022/04/06 10:56:22;;;;;;;1.92;0.45;;;17.10;96.90;;;;;;5041351;28;20017;-75
2022/04/06 10:58:56;;;;;;;0.43;0.30;;;17.00;96.70;;;;;;5026151;28;20367;-74
2022/04/06 11:01:29;;;;;;;0.52;0.30;;;17.10;96.60;;;;;;5022924;28;20044;-74
2022/04/06 11:04:06;;;;;;;0.45;0.30;;;17.30;96.40;;;;;;5027582;28;20024;-75
2022/04/06 11:06:41;;;;;;;0.73;0.50;;;17.40;96.30;;;;;;5027694;28;20030;-75
2022/04/06 11:12:26;;;;;;;0.40;0.40;;;17.20;95.70;;;;;;5029401;28;20571;-75
2022/04/06 11:14:58;;;;;;;0.85;0.30;;;17.00;96.40;;;;;;5027525;28;20404;-76
2022/04/06 11:17:34;;;;;;;0.22;0.20;;;17.00;96.40;;;;;;5014368;28;20099;-76
2022/04/06 11:20:02;;;;;;;0.30;0.30;;;16.90;96.20;;;;;;5023876;28;20033;-75
2022/04/06 11:22:28;;;;;;;3.60;0.43;;;16.70;96.50;;;;;;5029864;28;20037;-77
2022/04/06 11:24:56;;;;;;;0.30;0.30;;;16.90;96.80;;;;;;5011087;28;20516;-74
2022/04/06 11:27:33;;;;;;;0.68;0.30;;;17.00;96.10;;;;;;5015507;28;20051;-75
2022/04/06 11:30:05;;;;;;;3.90;0.50;;;17.20;95.90;;;;;;5023772;28;20026;-76
2022/04/06 11:32:31;;;;;;;0.50;0.30;;;17.60;95.70;;;;;;5028750;28;20477;-74
2022/04/06 11:35:05;;;;;;;0.32;0.22;;;17.50;95.10;;;;;;5032695;28;20030;-76
2022/04/06 11:37:31;;;;;;;0.68;0.20;;;17.70;94.90;;;;;;5031769;28;20418;-76
2022/04/06 11:39:58;;;;;;;0.65;0.43;;;18.00;94.90;;;;;;5029655;28;20084;-77
2022/04/06 11:42:24;;;;;;;0.28;0.28;;;17.70;94.90;;;;;;5017287;28;20392;-76
2022/04/06 11:44:50;;;;;;;0.47;0.40;;;17.50;95.40;;;;;;5032907;28;20083;-75
2022/04/06 11:47:25;;;;;;;0.40;0.40;;;18.10;94.50;;;;;;5031699;28;20028;-74
2022/04/06 11:49:51;;;;;;;0.45;0.40;;;17.90;94.10;;;;;;5028265;28;20386;-75
2022/04/06 11:52:16;;;;;;;1.00;0.47;;;17.70;94.70;;;;;;5033496;28;20032;-77
2022/04/06 11:54:53;;;;;;;0.30;0.30;;;17.70;94.20;;;;;;5028391;28;20030;-77
2022/04/06 11:57:19;;;;;;;0.45;0.30;;;17.50;94.70;;;;;;5030387;28;20021;-75
2022/04/06 11:59:57;;;;;;;0.85;0.30;;;18.00;94.50;;;;;;5026494;28;20089;-76
2022/04/06 12:02:23;;;;;;;0.50;0.30;;;17.80;93.90;;;;;;5029656;28;20096;-75
2022/04/06 12:05:05;;;;;;;3.92;0.30;;;17.70;94.30;;;;;;5015028;28;20191;-76
2022/04/06 12:07:31;;;;;;;0.90;0.30;;;17.90;94.20;;;;;;5019781;28;20025;-76
2022/04/06 12:09:57;;;;;;;1.85;0.30;;;18.30;93.70;;;;;;5027603;28;20037;-75
2022/04/06 12:12:23;;;;;;;1.45;0.30;;;18.20;93.40;;;;;;5031577;28;20479;-74
2022/04/06 12:14:51;;;;;;;0.30;0.30;;;18.20;93.10;;;;;;5028754;28;20510;-74
2022/04/06 12:17:17;;;;;;;1.13;0.20;;;18.10;92.90;;;;;;5008217;28;20329;-74
2022/04/06 12:19:43;;;;;;;0.20;0.20;;;17.90;92.90;;;;;;5034830;28;20428;-76
2022/04/06 12:22:11;;;;;;;0.85;0.35;;;17.50;92.80;;;;;;5031758;28;20045;-75
2022/04/06 12:24:40;;;;;;;0.52;0.43;;;17.70;93.10;;;;;;5039096;28;20021;-74
2022/04/06 12:27:06;;;;;;;0.47;0.20;;;18.10;93.00;;;;;;5058812;28;20049;-75
2022/04/06 12:29:35;;;;;;;0.28;0.28;;;17.60;91.90;;;;;;5059199;28;20044;-73
2022/04/06 12:32:02;;;;;;;0.20;0.20;;;16.90;92.00;;;;;;5053352;28;20030;-75
2022/04/06 12:34:36;;;;;;;1.65;0.30;;;16.70;92.90;;;;;;5035872;28;20017;-72
2022/04/06 12:39:54;;;;;;;0.45;0.38;;;16.90;93.00;;;;;;5036341;28;20088;-76
2022/04/06 12:42:23;;;;;;;0.98;0.40;;;17.00;93.20;;;;;;5018775;28;20025;-75
2022/04/06 12:45:02;;;;;;;0.50;0.50;;;17.00;92.90;;;;;;5036938;28;20045;-76
2022/04/06 12:47:27;;;;;;;0.30;0.30;;;17.00;93.40;;;;;;5032974;28;20026;-74
2022/04/06 12:50:21;;;;;;;0.47;0.30;;;17.20;92.60;;;;;;5036595;28;20033;-75
2022/04/06 12:53:07;;;;;;;1.52;0.40;;;17.40;92.20;;;;;;5033158;28;20526;-75
2022/04/06 12:55:32;;;;;;;0.50;0.50;;;17.60;92.30;;;;;;5036700;28;20147;-76
2022/04/06 12:58:19;;;;;;;0.47;0.30;;;17.60;92.40;;;;;;5034373;28;20459;-75
2022/04/06 13:00:45;;;;;;;0.57;0.30;;;17.40;92.20;;;;;;5032251;28;20053;-75
2022/04/06 13:03:11;;;;;;;0.30;0.30;;;17.10;91.70;;;;;;5034673;28;20052;-75